createdAt,value
2019-05-13T00:00:09.139Z,0.00
2019-05-13T00:01:09.126Z,0.00
2019-05-13T00:02:09.100Z,0.00
2019-05-13T00:03:09.083Z,0.00
2019-05-13T00:04:09.074Z,0.00
2019-05-13T00:05:09.081Z,0.00
2019-05-13T00:06:09.082Z,0.00
2019-05-13T00:07:09.052Z,0.00
2019-05-13T00:08:09.039Z,0.00
2019-05-13T00:09:09.015Z,0.00
2019-05-13T00:10:09.003Z,0.00
2019-05-13T00:11:09.014Z,0.00
2019-05-13T00:12:09.006Z,0.00
2019-05-13T00:13:08.977Z,0.00
2019-05-13T00:14:08.962Z,0.00
2019-05-13T00:15:08.973Z,0.00
2019-05-13T00:16:08.960Z,0.00
2019-05-13T00:17:08.950Z,0.00
2019-05-13T00:18:08.935Z,0.00
2019-05-13T00:19:08.923Z,0.00
2019-05-13T00:20:08.905Z,0.00
2019-05-13T00:21:08.906Z,0.00
2019-05-13T00:22:08.886Z,0.00
2019-05-13T00:23:08.866Z,0.00
2019-05-13T00:24:08.849Z,0.00
2019-05-13T00:25:08.861Z,0.00
2019-05-13T00:26:08.856Z,0.00
2019-05-13T00:27:08.826Z,0.00
2019-05-13T00:28:08.812Z,0.00
2019-05-13T00:29:08.809Z,0.00
2019-05-13T00:30:08.798Z,0.00
2019-05-13T00:31:08.790Z,0.00
2019-05-13T00:32:08.772Z,0.00
2019-05-13T00:33:08.751Z,0.00
2019-05-13T00:34:08.738Z,0.00
2019-05-13T00:35:08.729Z,0.00
2019-05-13T00:36:08.728Z,0.00
2019-05-13T00:37:11.579Z,0.00
2019-05-13T00:38:08.712Z,0.00
2019-05-13T00:39:08.698Z,0.00
2019-05-13T00:40:08.688Z,0.00
2019-05-13T00:41:08.671Z,0.00
2019-05-13T00:42:08.654Z,0.00
2019-05-13T00:43:08.648Z,0.00
2019-05-13T00:44:08.643Z,0.00
2019-05-13T00:45:09.513Z,0.00
2019-05-13T00:46:08.619Z,0.00
2019-05-13T00:47:08.597Z,0.00
2019-05-13T00:48:08.595Z,0.00
2019-05-13T00:49:08.586Z,0.00
2019-05-13T00:50:08.589Z,0.00
2019-05-13T00:51:08.581Z,0.00
2019-05-13T00:52:08.569Z,0.00
2019-05-13T00:53:08.539Z,0.00
2019-05-13T00:54:08.554Z,0.00
2019-05-13T00:55:10.161Z,0.00
2019-05-13T00:56:08.515Z,0.00
2019-05-13T00:57:08.498Z,0.00
2019-05-13T00:58:08.484Z,0.00
2019-05-13T00:59:08.484Z,0.00
2019-05-13T01:00:08.460Z,0.00
2019-05-13T01:01:08.487Z,0.00
2019-05-13T01:02:08.452Z,0.00
2019-05-13T01:03:08.441Z,0.00
2019-05-13T01:04:08.428Z,0.00
2019-05-13T01:05:08.409Z,0.00
2019-05-13T01:06:08.417Z,0.00
2019-05-13T01:07:21.984Z,0.00
2019-05-13T01:08:09.382Z,0.00
2019-05-13T01:09:08.385Z,0.00
2019-05-13T01:10:08.365Z,0.00
2019-05-13T01:11:08.369Z,0.00
2019-05-13T01:12:08.352Z,0.00
2019-05-13T01:13:08.322Z,0.00
2019-05-13T01:14:08.308Z,0.00
2019-05-13T01:15:08.302Z,0.00
2019-05-13T01:16:08.291Z,0.00
2019-05-13T01:17:08.276Z,0.00
2019-05-13T01:18:08.263Z,0.00
2019-05-13T01:19:08.259Z,0.00
2019-05-13T01:20:08.245Z,0.00
2019-05-13T01:21:08.245Z,0.00
2019-05-13T01:22:08.239Z,0.00
2019-05-13T01:23:08.213Z,0.00
2019-05-13T01:24:08.202Z,0.00
2019-05-13T01:25:08.179Z,0.00
2019-05-13T01:26:08.180Z,0.00
2019-05-13T01:27:08.171Z,0.00
2019-05-13T01:28:08.152Z,0.00
2019-05-13T01:29:08.153Z,0.00
2019-05-13T01:30:08.141Z,0.00
2019-05-13T01:31:08.127Z,0.00
2019-05-13T01:32:08.121Z,0.00
2019-05-13T01:33:08.107Z,0.00
2019-05-13T01:34:08.105Z,0.00
2019-05-13T01:35:08.091Z,0.00
2019-05-13T01:36:08.077Z,0.00
2019-05-13T01:37:08.056Z,0.00
2019-05-13T01:38:08.040Z,0.00
2019-05-13T01:39:08.035Z,0.00
2019-05-13T01:40:08.014Z,0.00
2019-05-13T01:41:08.020Z,0.00
2019-05-13T01:42:08.013Z,0.00
2019-05-13T01:43:08.008Z,0.00
2019-05-13T01:44:07.990Z,0.00
2019-05-13T01:45:07.973Z,0.00
2019-05-13T01:46:07.976Z,0.00
2019-05-13T01:47:07.963Z,0.00
2019-05-13T01:48:08.207Z,0.00
2019-05-13T01:49:07.920Z,0.00
2019-05-13T01:50:07.914Z,0.00
2019-05-13T01:51:07.897Z,0.00
2019-05-13T01:52:07.903Z,0.00
2019-05-13T01:53:07.885Z,0.00
2019-05-13T01:54:07.876Z,0.00
2019-05-13T01:55:07.859Z,0.00
2019-05-13T01:56:07.849Z,0.00
2019-05-13T01:57:07.845Z,0.00
2019-05-13T01:58:07.814Z,0.00
2019-05-13T01:59:07.811Z,0.00
2019-05-13T02:00:07.810Z,0.00
2019-05-13T02:01:07.793Z,0.00
2019-05-13T02:02:07.807Z,0.00
2019-05-13T02:03:07.761Z,0.00
2019-05-13T02:04:07.753Z,0.00
2019-05-13T02:05:07.754Z,0.00
2019-05-13T02:06:07.757Z,0.00
2019-05-13T02:07:07.745Z,0.00
2019-05-13T02:08:07.715Z,0.00
2019-05-13T02:09:07.704Z,0.00
2019-05-13T02:10:07.702Z,0.00
2019-05-13T02:11:07.678Z,0.00
2019-05-13T02:12:07.681Z,0.00
2019-05-13T02:13:07.674Z,0.00
2019-05-13T02:14:07.649Z,0.00
2019-05-13T02:15:07.636Z,0.00
2019-05-13T02:16:07.625Z,0.00
2019-05-13T02:17:07.625Z,0.00
2019-05-13T02:18:07.599Z,0.00
2019-05-13T02:19:07.596Z,0.00
2019-05-13T02:20:07.603Z,0.00
2019-05-13T02:21:07.569Z,0.00
2019-05-13T02:22:07.568Z,0.00
2019-05-13T02:23:07.539Z,0.00
2019-05-13T02:24:07.528Z,0.00
2019-05-13T02:25:07.524Z,0.00
2019-05-13T02:26:07.516Z,0.00
2019-05-13T02:27:07.530Z,0.00
2019-05-13T02:28:10.163Z,0.00
2019-05-13T02:29:07.481Z,0.00
2019-05-13T02:30:07.471Z,0.00
2019-05-13T02:31:07.456Z,0.00
2019-05-13T02:32:07.448Z,0.00
2019-05-13T02:33:07.460Z,0.00
2019-05-13T02:34:07.436Z,0.00
2019-05-13T02:35:07.412Z,0.00
2019-05-13T02:36:07.409Z,0.00
2019-05-13T02:37:07.406Z,0.00
2019-05-13T02:38:19.616Z,0.00
2019-05-13T02:39:08.390Z,0.00
2019-05-13T02:40:07.379Z,0.00
2019-05-13T02:41:07.339Z,0.00
2019-05-13T02:42:07.334Z,0.00
2019-05-13T02:43:07.339Z,0.00
2019-05-13T02:44:07.329Z,0.00
2019-05-13T02:45:07.307Z,0.00
2019-05-13T02:46:07.301Z,0.00
2019-05-13T02:47:07.293Z,0.00
2019-05-13T02:48:07.295Z,0.00
2019-05-13T02:49:07.268Z,0.00
2019-05-13T02:50:07.247Z,0.00
2019-05-13T02:51:07.246Z,0.00
2019-05-13T02:52:07.245Z,0.00
2019-05-13T02:53:07.260Z,0.00
2019-05-13T02:54:07.212Z,0.00
2019-05-13T02:55:07.200Z,0.00
2019-05-13T02:56:07.181Z,0.00
2019-05-13T02:57:07.184Z,0.00
2019-05-13T02:58:07.183Z,0.00
2019-05-13T02:59:07.144Z,0.00
2019-05-13T03:00:07.133Z,0.00
2019-05-13T03:01:07.138Z,0.00
2019-05-13T03:02:07.128Z,0.00
2019-05-13T03:03:07.121Z,0.00
2019-05-13T03:04:07.103Z,0.00
2019-05-13T03:05:07.088Z,0.00
2019-05-13T03:06:07.092Z,0.00
2019-05-13T03:07:07.067Z,0.00
2019-05-13T03:08:07.071Z,0.00
2019-05-13T03:09:07.037Z,5.62
2019-05-13T03:10:07.035Z,5.62
2019-05-13T03:11:07.024Z,5.62
2019-05-13T03:12:07.020Z,5.62
2019-05-13T03:13:07.019Z,5.62
2019-05-13T03:14:06.999Z,5.62
2019-05-13T03:15:06.990Z,5.62
2019-05-13T03:16:06.971Z,5.62
2019-05-13T03:17:06.949Z,11.25
2019-05-13T03:18:06.960Z,11.25
2019-05-13T03:19:06.924Z,11.25
2019-05-13T03:20:06.931Z,11.25
2019-05-13T03:21:06.908Z,11.25
2019-05-13T03:22:06.898Z,11.25
2019-05-13T03:23:06.904Z,16.88
2019-05-13T03:24:06.897Z,16.88
2019-05-13T03:25:06.873Z,16.88
2019-05-13T03:26:06.867Z,16.88
2019-05-13T03:27:06.844Z,16.88
2019-05-13T03:28:06.877Z,22.50
2019-05-13T03:29:06.817Z,22.50
2019-05-13T03:30:06.804Z,22.50
2019-05-13T03:31:07.956Z,28.12
2019-05-13T03:32:07.639Z,28.12
2019-05-13T03:33:10.732Z,28.12
2019-05-13T03:34:08.036Z,33.75
2019-05-13T03:35:08.329Z,33.75
2019-05-13T03:36:08.358Z,33.75
2019-05-13T03:37:08.022Z,39.38
2019-05-13T03:38:06.734Z,39.38
2019-05-13T03:39:11.096Z,39.38
2019-05-13T03:40:07.706Z,45.00
2019-05-13T03:41:06.687Z,45.00
2019-05-13T03:42:06.674Z,45.00
2019-05-13T03:43:06.677Z,50.62
2019-05-13T03:44:06.653Z,50.62
2019-05-13T03:45:06.657Z,56.25
2019-05-13T03:46:06.650Z,56.25
2019-05-13T03:47:06.633Z,56.25
2019-05-13T03:48:06.632Z,61.88
2019-05-13T03:49:06.608Z,61.88
2019-05-13T03:50:06.601Z,61.88
2019-05-13T03:51:06.584Z,67.50
2019-05-13T03:52:06.563Z,67.50
2019-05-13T03:53:06.574Z,67.50
2019-05-13T03:54:06.572Z,67.50
2019-05-13T03:55:06.548Z,73.12
2019-05-13T03:56:06.524Z,73.12
2019-05-13T03:57:06.516Z,73.12
2019-05-13T03:58:06.507Z,73.12
2019-05-13T03:59:06.528Z,78.75
2019-05-13T04:00:06.488Z,78.75
2019-05-13T04:01:06.460Z,84.38
2019-05-13T04:02:06.464Z,84.38
2019-05-13T04:03:06.446Z,84.38
2019-05-13T04:04:06.453Z,78.75
2019-05-13T04:05:06.441Z,78.75
2019-05-13T04:06:06.425Z,90.00
2019-05-13T04:07:06.407Z,95.62
2019-05-13T04:08:06.392Z,95.62
2019-05-13T04:09:20.514Z,101.25
2019-05-13T04:10:07.375Z,101.25
2019-05-13T04:11:06.369Z,101.25
2019-05-13T04:12:06.366Z,106.88
2019-05-13T04:13:06.336Z,106.88
2019-05-13T04:14:06.338Z,112.50
2019-05-13T04:15:06.312Z,112.50
2019-05-13T04:16:06.324Z,112.50
2019-05-13T04:17:06.317Z,118.12
2019-05-13T04:18:06.283Z,118.12
2019-05-13T04:19:06.288Z,118.12
2019-05-13T04:20:06.260Z,123.75
2019-05-13T04:21:06.240Z,123.75
2019-05-13T04:22:06.231Z,123.75
2019-05-13T04:23:06.228Z,129.38
2019-05-13T04:24:06.241Z,129.38
2019-05-13T04:25:06.222Z,135.00
2019-05-13T04:26:06.201Z,135.00
2019-05-13T04:27:06.190Z,140.62
2019-05-13T04:28:06.172Z,140.62
2019-05-13T04:29:06.182Z,140.62
2019-05-13T04:30:06.158Z,146.25
2019-05-13T04:31:06.142Z,146.25
2019-05-13T04:32:06.136Z,146.25
2019-05-13T04:33:06.125Z,151.88
2019-05-13T04:34:06.110Z,151.88
2019-05-13T04:35:06.102Z,151.88
2019-05-13T04:36:06.089Z,157.50
2019-05-13T04:37:06.082Z,157.50
2019-05-13T04:38:09.191Z,157.50
2019-05-13T04:39:07.062Z,163.12
2019-05-13T04:40:06.042Z,163.12
2019-05-13T04:41:06.023Z,163.12
2019-05-13T04:42:06.024Z,163.12
2019-05-13T04:43:06.020Z,163.12
2019-05-13T04:44:06.044Z,168.75
2019-05-13T04:45:05.997Z,168.75
2019-05-13T04:46:05.976Z,168.75
2019-05-13T04:47:05.965Z,174.38
2019-05-13T04:48:05.966Z,174.38
2019-05-13T04:49:05.960Z,174.38
2019-05-13T04:50:05.932Z,180.00
2019-05-13T04:51:05.937Z,180.00
2019-05-13T04:52:05.915Z,185.62
2019-05-13T04:53:05.906Z,191.25
2019-05-13T04:54:05.908Z,196.88
2019-05-13T04:55:05.873Z,202.50
2019-05-13T04:56:05.869Z,208.12
2019-05-13T04:57:05.854Z,230.62
2019-05-13T04:58:05.862Z,331.88
2019-05-13T04:59:05.838Z,495.00
2019-05-13T05:00:05.816Z,489.38
2019-05-13T05:01:09.053Z,461.25
2019-05-13T05:02:05.807Z,506.25
2019-05-13T05:03:05.792Z,478.12
2019-05-13T05:04:13.872Z,466.88
2019-05-13T05:05:06.766Z,495.00
2019-05-13T05:06:05.745Z,466.88
2019-05-13T05:07:05.741Z,483.75
2019-05-13T05:08:05.725Z,517.50
2019-05-13T05:09:05.747Z,556.88
2019-05-13T05:10:30.414Z,556.88
2019-05-13T05:11:06.700Z,556.88
2019-05-13T05:12:05.689Z,551.25
2019-05-13T05:13:05.675Z,495.00
2019-05-13T05:14:05.674Z,348.75
2019-05-13T05:15:05.672Z,247.50
2019-05-13T05:16:05.656Z,241.88
2019-05-13T05:17:05.638Z,236.25
2019-05-13T05:18:05.618Z,236.25
2019-05-13T05:19:05.603Z,241.88
2019-05-13T05:20:05.624Z,241.88
2019-05-13T05:21:05.589Z,241.88
2019-05-13T05:22:05.593Z,247.50
2019-05-13T05:23:05.566Z,253.12
2019-05-13T05:24:05.564Z,258.75
2019-05-13T05:25:05.538Z,264.38
2019-05-13T05:26:05.543Z,270.00
2019-05-13T05:27:05.524Z,275.62
2019-05-13T05:28:05.502Z,376.88
2019-05-13T05:29:05.501Z,658.12
2019-05-13T05:30:05.497Z,894.38
2019-05-13T05:31:05.491Z,933.75
2019-05-13T05:32:05.458Z,956.25
2019-05-13T05:33:05.466Z,973.12
2019-05-13T05:34:06.752Z,1012.50
2019-05-13T05:35:05.435Z,1102.50
2019-05-13T05:36:05.419Z,1153.12
2019-05-13T05:37:05.428Z,1186.88
2019-05-13T05:38:05.398Z,1226.25
2019-05-13T05:39:05.392Z,1158.75
2019-05-13T05:40:05.375Z,1119.38
2019-05-13T05:41:05.367Z,1181.25
2019-05-13T05:42:05.352Z,1147.50
2019-05-13T05:43:05.368Z,1063.12
2019-05-13T05:44:05.332Z,990.00
2019-05-13T05:45:05.321Z,888.75
2019-05-13T05:46:05.307Z,759.38
2019-05-13T05:47:05.306Z,624.38
2019-05-13T05:48:05.316Z,562.50
2019-05-13T05:49:05.272Z,545.62
2019-05-13T05:50:05.262Z,540.00
2019-05-13T05:51:05.241Z,540.00
2019-05-13T05:52:05.246Z,534.38
2019-05-13T05:53:05.237Z,534.38
2019-05-13T05:54:05.264Z,534.38
2019-05-13T05:55:05.221Z,540.00
2019-05-13T05:56:05.204Z,540.00
2019-05-13T05:57:05.188Z,568.12
2019-05-13T05:58:05.179Z,624.38
2019-05-13T05:59:05.171Z,658.12
2019-05-13T06:00:05.159Z,618.75
2019-05-13T06:01:05.146Z,579.38
2019-05-13T06:02:05.147Z,579.38
2019-05-13T06:03:05.121Z,573.75
2019-05-13T06:04:05.122Z,568.12
2019-05-13T06:05:05.128Z,568.12
2019-05-13T06:06:05.104Z,568.12
2019-05-13T06:07:05.103Z,596.25
2019-05-13T06:08:05.077Z,601.88
2019-05-13T06:09:05.049Z,596.25
2019-05-13T06:10:05.067Z,624.38
2019-05-13T06:11:05.052Z,646.88
2019-05-13T06:12:05.022Z,630.00
2019-05-13T06:13:05.018Z,607.50
2019-05-13T06:14:05.013Z,630.00
2019-05-13T06:15:05.007Z,669.38
2019-05-13T06:16:04.995Z,658.12
2019-05-13T06:17:04.966Z,675.00
2019-05-13T06:18:04.959Z,680.62
2019-05-13T06:19:04.948Z,663.75
2019-05-13T06:20:04.972Z,691.88
2019-05-13T06:21:04.916Z,720.00
2019-05-13T06:22:04.907Z,753.75
2019-05-13T06:23:04.910Z,956.25
2019-05-13T06:24:04.911Z,2407.50
2019-05-13T06:25:04.906Z,3510.00
2019-05-13T06:26:04.897Z,2981.25
2019-05-13T06:27:04.864Z,2553.75
2019-05-13T06:28:04.851Z,2362.50
2019-05-13T06:29:04.845Z,2244.38
2019-05-13T06:30:04.837Z,2250.00
2019-05-13T06:31:04.807Z,2238.75
2019-05-13T06:32:17.562Z,2115.00
2019-05-13T06:33:05.804Z,2109.38
2019-05-13T06:34:04.930Z,2131.88
2019-05-13T06:35:04.875Z,2041.88
2019-05-13T06:36:04.799Z,2002.50
2019-05-13T06:37:04.773Z,2025.00
2019-05-13T06:38:04.748Z,2002.50
2019-05-13T06:39:04.747Z,2058.75
2019-05-13T06:40:04.732Z,2081.25
2019-05-13T06:41:09.246Z,2092.50
2019-05-13T06:42:05.725Z,2098.12
2019-05-13T06:43:04.685Z,2109.38
2019-05-13T06:44:04.680Z,2109.38
2019-05-13T06:45:04.682Z,2081.25
2019-05-13T06:46:04.658Z,2176.88
2019-05-13T06:47:04.647Z,2221.88
2019-05-13T06:48:04.640Z,2171.25
2019-05-13T06:49:04.631Z,2221.88
2019-05-13T06:50:04.615Z,2272.50
2019-05-13T06:51:04.609Z,2306.25
2019-05-13T06:52:04.592Z,2289.38
2019-05-13T06:53:08.143Z,2289.38
2019-05-13T06:54:04.557Z,2250.00
2019-05-13T06:55:04.559Z,2160.00
2019-05-13T06:56:04.552Z,2216.25
2019-05-13T06:57:06.010Z,2289.38
2019-05-13T06:58:04.541Z,2283.75
2019-05-13T06:59:04.520Z,2210.62
2019-05-13T07:00:04.524Z,2216.25
2019-05-13T07:01:04.633Z,2227.50
2019-05-13T07:02:04.488Z,2205.00
2019-05-13T07:03:04.462Z,2238.75
2019-05-13T07:04:04.452Z,2176.88
2019-05-13T07:05:04.477Z,2244.38
2019-05-13T07:06:04.456Z,2255.62
2019-05-13T07:07:16.206Z,2295.00
2019-05-13T07:08:05.419Z,2295.00
2019-05-13T07:09:04.413Z,2266.88
2019-05-13T07:10:04.402Z,2295.00
2019-05-13T07:11:17.555Z,2334.38
2019-05-13T07:12:05.388Z,2340.00
2019-05-13T07:13:04.359Z,2255.62
2019-05-13T07:14:04.352Z,2340.00
2019-05-13T07:15:04.340Z,2407.50
2019-05-13T07:16:04.355Z,2385.00
2019-05-13T07:17:04.336Z,2379.38
2019-05-13T07:18:04.319Z,2362.50
2019-05-13T07:19:04.313Z,2418.75
2019-05-13T07:20:04.300Z,2379.38
2019-05-13T07:21:04.292Z,2401.88
2019-05-13T07:22:04.284Z,2548.12
2019-05-13T07:23:04.286Z,2643.75
2019-05-13T07:24:04.268Z,2643.75
2019-05-13T07:25:04.242Z,2525.62
2019-05-13T07:26:04.277Z,2565.00
2019-05-13T07:27:04.218Z,2643.75
2019-05-13T07:28:04.217Z,2677.50
2019-05-13T07:29:04.747Z,2745.00
2019-05-13T07:30:04.209Z,2790.00
2019-05-13T07:31:04.213Z,2801.25
2019-05-13T07:32:04.177Z,2750.62
2019-05-13T07:33:04.165Z,2750.62
2019-05-13T07:34:04.154Z,2823.75
2019-05-13T07:35:04.522Z,2812.50
2019-05-13T07:36:04.148Z,2840.62
2019-05-13T07:37:04.125Z,2778.75
2019-05-13T07:38:04.117Z,2784.38
2019-05-13T07:39:04.100Z,2857.50
2019-05-13T07:40:04.087Z,2908.12
2019-05-13T07:41:04.099Z,2857.50
2019-05-13T07:42:05.824Z,2868.75
2019-05-13T07:43:04.077Z,2936.25
2019-05-13T07:44:04.057Z,2891.25
2019-05-13T07:45:04.034Z,2773.12
2019-05-13T07:46:04.038Z,2767.50
2019-05-13T07:47:04.026Z,2947.50
2019-05-13T07:48:18.362Z,3093.75
2019-05-13T07:49:05.014Z,3037.50
2019-05-13T07:50:03.985Z,3043.12
2019-05-13T07:51:04.781Z,3105.00
2019-05-13T07:52:03.989Z,3110.62
2019-05-13T07:53:03.963Z,3065.62
2019-05-13T07:54:03.951Z,3172.50
2019-05-13T07:55:03.946Z,3335.62
2019-05-13T07:56:03.935Z,3172.50
2019-05-13T07:57:03.943Z,3048.75
2019-05-13T07:58:03.904Z,3138.75
2019-05-13T07:59:03.916Z,3195.00
2019-05-13T08:00:03.883Z,3195.00
2019-05-13T08:01:03.889Z,3133.12
2019-05-13T08:02:03.972Z,3150.00
2019-05-13T08:03:03.868Z,3223.12
2019-05-13T08:04:03.855Z,3296.25
2019-05-13T08:05:03.839Z,3290.62
2019-05-13T08:06:03.822Z,3223.12
2019-05-13T08:07:03.833Z,3313.12
2019-05-13T08:08:03.805Z,3414.38
2019-05-13T08:09:03.802Z,3571.88
2019-05-13T08:10:03.842Z,3526.88
2019-05-13T08:11:03.779Z,1248.75
2019-05-13T08:12:10.254Z,405.00
2019-05-13T08:13:04.769Z,450.00
2019-05-13T08:14:03.798Z,3504.38
2019-05-13T08:15:03.769Z,3594.38
2019-05-13T08:16:03.929Z,3521.25
2019-05-13T08:17:03.722Z,3538.12
2019-05-13T08:18:03.705Z,573.75
2019-05-13T08:19:03.700Z,3307.50
2019-05-13T08:20:03.684Z,765.00
2019-05-13T08:21:03.689Z,2025.00
2019-05-13T08:22:03.684Z,725.62
2019-05-13T08:23:03.675Z,3667.50
2019-05-13T08:24:03.663Z,624.38
2019-05-13T08:25:03.674Z,483.75
2019-05-13T08:26:03.632Z,466.88
2019-05-13T08:27:03.636Z,624.38
2019-05-13T08:28:03.627Z,3684.38
2019-05-13T08:29:05.938Z,3622.50
2019-05-13T08:30:03.585Z,3723.75
2019-05-13T08:31:03.578Z,928.12
2019-05-13T08:32:03.578Z,776.25
2019-05-13T08:33:03.564Z,1001.25
2019-05-13T08:34:03.569Z,855.00
2019-05-13T08:35:08.833Z,3836.25
2019-05-13T08:36:04.532Z,3751.88
2019-05-13T08:37:03.547Z,1850.62
2019-05-13T08:38:03.496Z,3695.62
2019-05-13T08:39:03.488Z,3358.12
2019-05-13T08:40:03.489Z,3751.88
2019-05-13T08:41:03.491Z,3937.50
2019-05-13T08:42:15.651Z,3825.00
2019-05-13T08:43:06.791Z,2992.50
2019-05-13T08:44:03.447Z,3408.75
2019-05-13T08:45:03.437Z,933.75
2019-05-13T08:46:03.443Z,534.38
2019-05-13T08:47:03.641Z,3324.38
2019-05-13T08:48:03.403Z,3391.88
2019-05-13T08:49:03.957Z,3425.62
2019-05-13T08:50:04.470Z,3498.75
2019-05-13T08:51:03.543Z,3605.62
2019-05-13T08:52:03.385Z,3667.50
2019-05-13T08:53:03.354Z,3571.88
2019-05-13T08:54:03.355Z,3633.75
2019-05-13T08:55:03.336Z,3740.62
2019-05-13T08:56:03.325Z,736.88
2019-05-13T08:57:03.428Z,3543.75
2019-05-13T08:58:03.320Z,804.38
2019-05-13T08:59:03.304Z,680.62
2019-05-13T09:00:05.469Z,703.12
2019-05-13T09:01:03.266Z,759.38
2019-05-13T09:02:03.598Z,1023.75
2019-05-13T09:03:06.178Z,4561.88
2019-05-13T09:04:03.255Z,4533.75
2019-05-13T09:05:03.243Z,4533.75
2019-05-13T09:06:03.261Z,4466.25
2019-05-13T09:07:03.240Z,4466.25
2019-05-13T09:08:03.216Z,4275.00
2019-05-13T09:09:03.183Z,4213.12
2019-05-13T09:10:03.177Z,4089.38
2019-05-13T09:11:03.194Z,3909.38
2019-05-13T09:12:03.176Z,1681.88
2019-05-13T09:13:03.161Z,4185.00
2019-05-13T09:14:03.148Z,1310.62
2019-05-13T09:16:04.118Z,759.38
2019-05-13T09:17:03.139Z,1715.62
2019-05-13T09:18:03.117Z,4038.75
2019-05-13T09:19:03.980Z,3886.88
2019-05-13T09:20:04.085Z,3926.25
2019-05-13T09:21:03.079Z,585.00
2019-05-13T09:22:03.524Z,596.25
2019-05-13T09:23:03.059Z,601.88
2019-05-13T09:24:03.051Z,641.25
2019-05-13T09:25:03.045Z,4111.88
2019-05-13T09:26:03.023Z,3825.00
2019-05-13T09:27:03.043Z,3605.62
2019-05-13T09:28:03.035Z,3763.12
2019-05-13T09:29:03.000Z,3740.62
2019-05-13T09:30:03.037Z,3099.38
2019-05-13T09:31:02.985Z,697.50
2019-05-13T09:32:04.107Z,3802.50
2019-05-13T09:33:02.971Z,3825.00
2019-05-13T09:34:02.959Z,3774.38
2019-05-13T09:35:03.253Z,3701.25
2019-05-13T09:36:02.924Z,3706.88
2019-05-13T09:37:03.242Z,3701.25
2019-05-13T09:38:03.411Z,3763.12
2019-05-13T09:39:02.904Z,3853.12
2019-05-13T09:40:02.891Z,3965.62
2019-05-13T09:41:02.876Z,4078.12
2019-05-13T09:42:03.168Z,4061.25
2019-05-13T09:43:02.885Z,3920.62
2019-05-13T09:44:02.876Z,3943.12
2019-05-13T09:45:02.840Z,3931.88
2019-05-13T09:46:02.847Z,4055.62
2019-05-13T09:47:03.039Z,1591.88
2019-05-13T09:48:02.818Z,4078.12
2019-05-13T09:49:15.054Z,4100.62
2019-05-13T09:50:04.603Z,2891.25
2019-05-13T09:51:02.816Z,618.75
2019-05-13T09:52:02.788Z,691.88
2019-05-13T09:53:03.269Z,804.38
2019-05-13T09:54:02.744Z,916.88
2019-05-13T09:55:03.235Z,995.62
2019-05-13T09:56:02.773Z,2362.50
2019-05-13T09:57:02.729Z,832.50
2019-05-13T09:58:02.744Z,759.38
2019-05-13T09:59:02.701Z,860.62
2019-05-13T10:00:02.703Z,1012.50
2019-05-13T10:01:02.720Z,4286.25
2019-05-13T10:03:03.681Z,1884.38
2019-05-13T10:04:03.250Z,2272.50
2019-05-13T10:05:02.638Z,4151.25
2019-05-13T10:06:02.838Z,753.75
2019-05-13T10:07:02.830Z,624.38
2019-05-13T10:08:02.682Z,562.50
2019-05-13T10:09:02.681Z,478.12
2019-05-13T10:10:02.598Z,416.25
2019-05-13T10:11:02.589Z,371.25
2019-05-13T10:12:03.492Z,360.00
2019-05-13T10:14:03.542Z,410.62
2019-05-13T10:15:02.616Z,450.00
2019-05-13T10:16:02.532Z,478.12
2019-05-13T10:17:05.971Z,585.00
2019-05-13T10:18:02.531Z,781.88
2019-05-13T10:19:02.857Z,1490.62
2019-05-13T10:20:02.477Z,4308.75
2019-05-13T10:21:02.481Z,1029.38
2019-05-13T10:22:02.473Z,984.38
2019-05-13T10:23:02.473Z,826.88
2019-05-13T10:24:02.443Z,810.00
2019-05-13T10:25:02.815Z,798.75
2019-05-13T10:26:03.449Z,821.25
2019-05-13T10:27:02.745Z,855.00
2019-05-13T10:28:02.407Z,967.50
2019-05-13T10:29:02.398Z,871.88
2019-05-13T10:30:02.399Z,2587.50
2019-05-13T10:31:02.646Z,877.50
2019-05-13T10:32:03.329Z,961.88
2019-05-13T10:33:02.919Z,990.00
2019-05-13T10:34:02.717Z,3543.75
2019-05-13T10:35:03.205Z,3453.75
2019-05-13T10:36:03.529Z,4173.75
2019-05-13T10:37:02.732Z,4038.75
2019-05-13T10:38:04.417Z,3937.50
2019-05-13T10:39:02.279Z,3960.00
2019-05-13T10:40:02.659Z,3943.12
2019-05-13T10:41:03.240Z,4010.62
2019-05-13T10:42:03.672Z,3971.25
2019-05-13T10:43:02.283Z,3931.88
2019-05-13T10:44:02.960Z,3937.50
2019-05-13T10:45:02.670Z,3920.62
2019-05-13T10:46:02.956Z,4027.50
2019-05-13T10:47:02.638Z,4066.88
2019-05-13T10:48:02.939Z,4061.25
2019-05-13T10:49:02.183Z,4123.12
2019-05-13T10:50:03.013Z,2739.38
2019-05-13T10:51:02.496Z,3245.62
2019-05-13T10:52:03.206Z,748.12
2019-05-13T10:53:02.689Z,675.00
2019-05-13T10:54:02.144Z,686.25
2019-05-13T10:55:02.201Z,708.75
2019-05-13T10:56:03.298Z,894.38
2019-05-13T10:57:03.897Z,2649.38
2019-05-13T10:58:02.528Z,860.62
2019-05-13T10:59:03.005Z,3802.50
2019-05-13T11:00:03.348Z,3999.38
2019-05-13T11:01:02.832Z,4106.25
2019-05-13T11:02:02.400Z,4072.50
2019-05-13T11:03:02.040Z,4061.25
2019-05-13T11:04:02.629Z,3965.62
2019-05-13T11:05:03.165Z,4016.25
2019-05-13T11:06:02.009Z,3965.62
2019-05-13T11:07:03.067Z,3825.00
2019-05-13T11:08:02.162Z,3645.00
2019-05-13T11:09:02.206Z,2424.38
2019-05-13T11:10:02.279Z,3875.62
2019-05-13T11:11:02.169Z,3937.50
2019-05-13T11:12:02.272Z,3943.12
2019-05-13T11:13:01.939Z,4106.25
2019-05-13T11:14:10.147Z,933.75
2019-05-13T11:15:02.932Z,731.25
2019-05-13T11:16:02.461Z,708.75
2019-05-13T11:17:01.901Z,731.25
2019-05-13T11:18:03.043Z,697.50
2019-05-13T11:19:02.811Z,714.38
2019-05-13T11:20:03.387Z,765.00
2019-05-13T11:21:02.223Z,793.12
2019-05-13T11:22:02.758Z,753.75
2019-05-13T11:23:02.459Z,759.38
2019-05-13T11:24:03.318Z,765.00
2019-05-13T11:25:02.677Z,894.38
2019-05-13T11:27:03.096Z,562.50
2019-05-13T11:28:01.841Z,478.12
2019-05-13T11:29:02.795Z,421.88
2019-05-13T11:30:05.491Z,388.12
2019-05-13T11:31:03.405Z,382.50
2019-05-13T11:32:02.733Z,427.50
2019-05-13T11:33:02.384Z,500.62
2019-05-13T11:34:02.185Z,562.50
2019-05-13T11:35:02.096Z,630.00
2019-05-13T11:36:03.231Z,697.50
2019-05-13T11:37:03.719Z,753.75
2019-05-13T11:38:01.774Z,765.00
2019-05-13T11:39:02.976Z,787.50
2019-05-13T11:40:02.758Z,759.38
2019-05-13T11:41:02.360Z,725.62
2019-05-13T11:42:02.285Z,765.00
2019-05-13T11:43:01.851Z,1738.12
2019-05-13T11:44:12.904Z,3774.38
2019-05-13T11:45:02.605Z,3543.75
2019-05-13T11:46:02.420Z,3009.38
2019-05-13T11:47:02.424Z,3600.00
2019-05-13T11:48:02.342Z,3780.00
2019-05-13T11:49:02.461Z,3774.38
2019-05-13T11:50:02.494Z,3751.88
2019-05-13T11:51:04.072Z,3763.12
2019-05-13T11:52:02.666Z,3785.62
2019-05-13T11:53:05.951Z,3673.12
2019-05-13T11:54:02.750Z,3684.38
2019-05-13T11:55:02.502Z,2525.62
2019-05-13T11:56:03.557Z,3583.12
2019-05-13T11:57:05.782Z,3521.25
2019-05-13T11:58:02.907Z,3363.75
2019-05-13T11:59:04.211Z,3397.50
2019-05-13T12:00:02.615Z,3470.62
2019-05-13T12:01:02.679Z,3459.38
2019-05-13T12:02:04.486Z,3420.00
2019-05-13T12:03:04.198Z,3330.00
2019-05-13T12:04:02.736Z,3296.25
2019-05-13T12:05:03.791Z,3414.38
2019-05-13T12:06:02.218Z,3628.12
2019-05-13T12:07:03.498Z,3521.25
2019-05-13T12:08:01.383Z,1243.12
2019-05-13T12:09:03.126Z,3521.25
2019-05-13T12:10:02.691Z,461.25
2019-05-13T12:11:04.240Z,483.75
2019-05-13T12:12:03.256Z,607.50
2019-05-13T12:13:01.323Z,3498.75
2019-05-13T12:14:01.317Z,3470.62
2019-05-13T12:15:28.089Z,3543.75
2019-05-13T12:16:03.804Z,3616.88
2019-05-13T12:17:02.300Z,3498.75
2019-05-13T12:18:02.898Z,3504.38
2019-05-13T12:19:03.538Z,3481.88
2019-05-13T12:20:03.104Z,3431.25
2019-05-13T12:21:03.368Z,3577.50
2019-05-13T12:22:02.638Z,1440.00
2019-05-13T12:23:03.420Z,506.25
2019-05-13T12:24:09.474Z,1243.12
2019-05-13T12:25:02.333Z,3510.00
2019-05-13T12:26:04.130Z,3538.12
2019-05-13T12:27:03.639Z,3538.12
2019-05-13T12:28:03.387Z,3465.00
2019-05-13T12:29:02.722Z,3273.75
2019-05-13T12:30:03.072Z,1895.62
2019-05-13T12:31:03.270Z,877.50
2019-05-13T12:32:03.371Z,849.38
2019-05-13T12:33:03.191Z,776.25
2019-05-13T12:34:03.619Z,511.88
2019-05-13T12:35:03.475Z,579.38
2019-05-13T12:36:01.999Z,663.75
2019-05-13T12:37:03.211Z,900.00